createdAt,value
2023-04-14T00:01:41.167Z,69.73
2023-04-14T00:04:09.987Z,69.73
2023-04-14T00:06:39.164Z,70.13
2023-04-14T00:09:07.650Z,70.46
2023-04-14T00:11:36.648Z,70.60
2023-04-14T00:14:06.181Z,71.05
2023-04-14T00:16:35.655Z,71.16
2023-04-14T00:19:04.270Z,71.49
2023-04-14T00:21:32.855Z,71.31
2023-04-14T00:24:01.336Z,71.50
2023-04-14T00:26:32.099Z,71.53
2023-04-14T00:29:00.593Z,71.52
2023-04-14T00:31:29.346Z,71.90
2023-04-14T00:33:57.939Z,71.96
2023-04-14T00:36:27.170Z,72.04
2023-04-14T00:38:55.532Z,71.60
2023-04-14T00:41:27.129Z,71.62
2023-04-14T00:43:55.882Z,71.68
2023-04-14T00:46:25.360Z,71.84
2023-04-14T00:48:56.093Z,71.76
2023-04-14T00:51:25.094Z,71.95
2023-04-14T00:53:54.741Z,71.79
2023-04-14T00:56:25.178Z,71.84
2023-04-14T00:58:54.069Z,71.90
2023-04-14T01:01:23.275Z,71.46
2023-04-14T01:03:53.299Z,71.61
2023-04-14T01:06:22.291Z,71.62
2023-04-14T01:08:50.879Z,71.58
2023-04-14T01:11:28.584Z,71.72
2023-04-14T01:14:27.466Z,71.66
2023-04-14T01:17:01.915Z,71.76
2023-04-14T01:19:48.789Z,72.02
2023-04-14T01:22:21.041Z,71.67
2023-04-14T01:25:16.376Z,71.66
2023-04-14T01:28:06.437Z,72.13
2023-04-14T01:30:48.843Z,72.29
2023-04-14T01:33:22.972Z,72.04
2023-04-14T01:35:57.197Z,72.05
2023-04-14T01:38:30.178Z,71.43
2023-04-14T01:41:04.600Z,71.19
2023-04-14T01:43:37.681Z,71.23
2023-04-14T01:46:13.872Z,71.43
2023-04-14T01:48:43.319Z,71.41
2023-04-14T01:51:14.093Z,71.60
2023-04-14T01:53:45.865Z,71.42
2023-04-14T01:56:17.408Z,71.57
2023-04-14T01:58:48.522Z,71.50
2023-04-14T02:01:18.018Z,71.54
2023-04-14T02:03:50.422Z,71.47
2023-04-14T02:06:21.732Z,71.67
2023-04-14T02:08:51.640Z,71.60
2023-04-14T02:11:21.340Z,71.71
2023-04-14T02:13:52.822Z,71.86
2023-04-14T02:16:22.300Z,71.93
2023-04-14T02:18:51.600Z,72.18
2023-04-14T02:21:23.148Z,72.39
2023-04-14T02:23:51.737Z,72.61
2023-04-14T02:26:24.120Z,73.13
2023-04-14T02:29:07.457Z,73.40
2023-04-14T02:31:42.779Z,73.18
2023-04-14T02:34:14.552Z,73.36
2023-04-14T02:36:49.023Z,73.75
2023-04-14T02:39:23.198Z,73.75
2023-04-14T02:41:58.799Z,73.61
2023-04-14T02:44:32.842Z,73.51
2023-04-14T02:47:07.900Z,73.64
2023-04-14T02:49:44.468Z,73.68
2023-04-14T02:52:16.152Z,73.40
2023-04-14T02:54:48.434Z,73.48
2023-04-14T02:57:18.714Z,73.54
2023-04-14T02:59:52.367Z,73.31
2023-04-14T03:02:22.489Z,73.50
2023-04-14T03:04:59.746Z,73.64
2023-04-14T03:07:51.006Z,73.59
2023-04-14T03:10:20.465Z,73.62
2023-04-14T03:12:50.843Z,73.58
2023-04-14T03:15:21.954Z,73.68
2023-04-14T03:17:56.208Z,73.93
2023-04-14T03:20:27.078Z,74.26
2023-04-14T03:23:05.574Z,74.07
2023-04-14T03:25:40.703Z,73.81
2023-04-14T03:28:18.943Z,73.86
2023-04-14T03:30:51.635Z,73.91
2023-04-14T03:33:29.441Z,73.83
2023-04-14T03:36:00.075Z,73.61
2023-04-14T03:38:32.034Z,73.48
2023-04-14T03:41:05.729Z,73.64
2023-04-14T03:43:35.719Z,73.83
2023-04-14T03:46:08.337Z,74.08
2023-04-14T03:48:42.984Z,74.02
2023-04-14T03:51:16.277Z,74.18
2023-04-14T03:53:46.993Z,73.95
2023-04-14T03:56:17.941Z,73.91
2023-04-14T03:58:49.489Z,74.10
2023-04-14T04:01:20.043Z,74.05
2023-04-14T04:03:49.361Z,73.85
2023-04-14T04:06:18.228Z,74.37
2023-04-14T04:08:49.968Z,74.59
2023-04-14T04:11:21.045Z,74.58
2023-04-14T04:13:51.994Z,74.55
2023-04-14T04:16:22.507Z,74.55
2023-04-14T04:18:52.227Z,74.46
2023-04-14T04:21:29.012Z,74.23
2023-04-14T04:24:01.013Z,74.32
2023-04-14T04:26:30.484Z,74.42
2023-04-14T04:29:01.033Z,74.59
2023-04-14T04:31:32.942Z,74.71
2023-04-14T04:34:03.413Z,74.78
2023-04-14T04:36:34.384Z,74.93
2023-04-14T04:39:03.632Z,75.05
2023-04-14T04:41:35.324Z,75.01
2023-04-14T04:44:03.912Z,75.37
2023-04-14T04:46:51.742Z,75.20
2023-04-14T04:49:21.404Z,75.31
2023-04-14T04:51:50.044Z,75.26
2023-04-14T04:54:20.794Z,75.41
2023-04-14T04:56:49.283Z,75.14
2023-04-14T04:59:17.751Z,75.11
2023-04-14T05:01:46.299Z,75.26
2023-04-14T05:04:15.281Z,75.22
2023-04-14T05:06:43.830Z,75.29
2023-04-14T05:09:12.420Z,75.42
2023-04-14T05:11:41.736Z,75.46
2023-04-14T05:14:11.342Z,75.37
2023-04-14T05:16:39.823Z,75.52
2023-04-14T05:19:08.412Z,75.23
2023-04-14T05:21:36.920Z,75.29
2023-04-14T05:24:05.888Z,75.30
2023-04-14T05:26:48.666Z,75.76
2023-04-14T05:29:20.474Z,75.82
2023-04-14T05:31:49.363Z,75.91
2023-04-14T05:34:17.784Z,75.91
2023-04-14T05:36:47.936Z,76.02
2023-04-14T05:39:16.778Z,76.32
2023-04-14T05:41:45.266Z,76.82
2023-04-14T05:44:14.071Z,76.97
2023-04-14T05:46:42.713Z,77.48
2023-04-14T05:49:11.549Z,77.38
2023-04-14T05:51:40.959Z,77.29
2023-04-14T05:54:09.441Z,77.29
2023-04-14T05:56:38.026Z,77.19
2023-04-14T05:59:06.587Z,77.53
2023-04-14T06:01:35.081Z,78.09
2023-04-14T06:04:04.560Z,78.14
2023-04-14T06:06:33.534Z,78.38
2023-04-14T06:09:02.099Z,78.67
2023-04-14T06:11:30.899Z,79.11
2023-04-14T06:14:02.203Z,79.18
2023-04-14T06:16:30.959Z,79.79
2023-04-14T06:18:59.914Z,80.24
2023-04-14T06:21:28.446Z,80.18
2023-04-14T06:23:56.904Z,80.79
2023-04-14T06:26:25.889Z,80.56
2023-04-14T06:28:54.192Z,80.84
2023-04-14T06:31:22.541Z,80.31
2023-04-14T06:33:53.132Z,80.15
2023-04-14T06:36:22.109Z,80.15
2023-04-14T06:38:50.708Z,80.13
2023-04-14T06:41:19.185Z,80.21
2023-04-14T06:43:47.666Z,80.44
2023-04-14T06:46:17.676Z,80.35
2023-04-14T06:48:46.283Z,80.04
2023-04-14T06:51:15.178Z,79.70
2023-04-14T06:53:43.555Z,79.66
2023-04-14T06:56:11.849Z,78.92
2023-04-14T06:58:40.634Z,78.62
2023-04-14T07:01:09.174Z,79.00
2023-04-14T07:03:38.580Z,78.59
2023-04-14T07:06:16.996Z,77.95
2023-04-14T07:08:46.698Z,77.60
2023-04-14T07:11:15.140Z,77.19
2023-04-14T07:13:43.434Z,76.92
2023-04-14T07:16:12.153Z,76.75
2023-04-14T07:18:40.718Z,76.53
2023-04-14T07:21:09.194Z,76.14
2023-04-14T07:23:37.779Z,75.88
2023-04-14T07:26:06.369Z,75.64
2023-04-14T07:28:34.854Z,74.81
2023-04-14T07:31:10.877Z,74.44
2023-04-14T07:33:40.013Z,74.07
2023-04-14T07:36:09.633Z,73.79
2023-04-14T07:38:38.022Z,73.33
2023-04-14T07:41:07.325Z,72.52
2023-04-14T07:43:36.118Z,71.88
2023-04-14T07:46:06.742Z,71.01
2023-04-14T07:48:36.768Z,71.00
2023-04-14T07:51:06.197Z,69.40
2023-04-14T07:53:40.649Z,67.90
2023-04-14T07:56:09.640Z,68.23
2023-04-14T07:58:38.092Z,67.40
2023-04-14T08:01:06.893Z,65.92
2023-04-14T08:03:38.028Z,65.54
2023-04-14T08:06:07.773Z,65.56
2023-04-14T08:08:36.922Z,64.59
2023-04-14T08:11:05.363Z,64.40
2023-04-14T08:13:33.924Z,63.60
2023-04-14T08:16:02.331Z,62.69
2023-04-14T08:18:31.479Z,61.83
2023-04-14T08:20:59.677Z,62.10
2023-04-14T08:23:28.274Z,61.46
2023-04-14T08:25:56.963Z,61.14
2023-04-14T08:28:25.450Z,61.01
2023-04-14T08:30:53.844Z,60.40
2023-04-14T08:33:22.643Z,59.12
2023-04-14T08:35:59.734Z,58.19
2023-04-14T08:38:29.728Z,56.62
2023-04-14T08:41:01.713Z,57.30
2023-04-14T08:43:30.282Z,57.44
2023-04-14T08:46:02.203Z,56.73
2023-04-14T08:48:32.122Z,55.48
2023-04-14T08:51:12.631Z,55.26
2023-04-14T08:53:46.057Z,54.91
2023-04-14T08:56:18.357Z,54.20
2023-04-14T08:58:47.486Z,53.10
2023-04-14T09:01:17.628Z,52.79
2023-04-14T09:03:47.518Z,52.46
2023-04-14T09:06:16.454Z,51.26
2023-04-14T09:08:45.048Z,51.02
2023-04-14T09:11:15.905Z,51.40
2023-04-14T09:13:45.067Z,51.57
2023-04-14T09:16:14.643Z,50.83
2023-04-14T09:18:44.210Z,50.39
2023-04-14T09:21:31.039Z,48.66
2023-04-14T09:24:07.334Z,48.59
2023-04-14T09:26:35.676Z,48.84
2023-04-14T09:29:04.213Z,47.43
2023-04-14T09:31:33.766Z,47.24
2023-04-14T09:34:02.307Z,45.32
2023-04-14T09:36:31.653Z,45.37
2023-04-14T09:39:00.156Z,44.10
2023-04-14T09:41:28.522Z,43.74
2023-04-14T09:44:07.478Z,42.33
2023-04-14T09:46:37.053Z,39.31
2023-04-14T09:49:07.388Z,38.95
2023-04-14T09:51:35.786Z,36.33
2023-04-14T09:54:06.196Z,35.05
2023-04-14T09:56:35.110Z,34.50
2023-04-14T09:59:04.136Z,35.08
2023-04-14T10:01:34.577Z,33.21
2023-04-14T10:04:04.318Z,32.34
2023-04-14T10:06:32.847Z,31.26
2023-04-14T10:09:02.288Z,31.18
2023-04-14T10:11:35.555Z,29.51
2023-04-14T10:14:06.760Z,29.69
2023-04-14T10:16:35.174Z,30.64
2023-04-14T10:19:04.357Z,31.34
2023-04-14T10:21:33.379Z,31.42
2023-04-14T10:24:02.365Z,31.49
2023-04-14T10:26:30.870Z,32.42
2023-04-14T10:29:02.579Z,31.39
2023-04-14T10:31:45.611Z,30.59
2023-04-14T10:34:16.088Z,30.87
2023-04-14T10:36:44.666Z,31.27
2023-04-14T10:39:13.412Z,30.33
2023-04-14T10:41:48.412Z,29.58
2023-04-14T10:44:34.860Z,29.57
2023-04-14T10:47:08.217Z,28.96
2023-04-14T10:49:39.621Z,29.15
2023-04-14T10:52:17.244Z,28.74
2023-04-14T10:54:50.222Z,27.70
2023-04-14T10:57:19.632Z,27.66
2023-04-14T10:59:48.178Z,28.77
2023-04-14T11:02:24.417Z,29.10
2023-04-14T11:04:59.314Z,29.17
2023-04-14T11:07:30.350Z,28.51
2023-04-14T11:10:24.570Z,27.92
2023-04-14T11:12:58.446Z,27.80
2023-04-14T11:15:43.120Z,27.21
2023-04-14T11:18:19.588Z,26.91
2023-04-14T11:20:48.168Z,24.65
2023-04-14T11:23:16.852Z,23.15
2023-04-14T11:25:45.759Z,23.95
2023-04-14T11:28:14.032Z,22.25
2023-04-14T11:30:42.512Z,21.84
2023-04-14T11:33:11.438Z,22.64
2023-04-14T11:35:42.461Z,22.95
2023-04-14T11:38:11.743Z,23.83
2023-04-14T11:40:40.047Z,23.45
2023-04-14T11:43:08.433Z,23.32
2023-04-14T11:45:42.990Z,24.21
2023-04-14T11:48:13.242Z,24.17
2023-04-14T11:50:42.897Z,24.50
2023-04-14T11:53:16.811Z,24.92
2023-04-14T11:55:48.084Z,24.85
2023-04-14T11:58:22.619Z,25.42
2023-04-14T12:00:53.047Z,25.38
2023-04-14T12:03:28.234Z,26.37
2023-04-14T12:06:00.894Z,27.02
2023-04-14T12:08:34.008Z,26.98
2023-04-14T12:11:15.128Z,27.79
2023-04-14T12:13:45.379Z,28.39
2023-04-14T12:16:15.395Z,29.00
2023-04-14T12:18:44.894Z,29.94
2023-04-14T12:21:18.898Z,29.75
2023-04-14T12:23:48.731Z,29.03
2023-04-14T12:26:17.505Z,28.28
2023-04-14T12:28:46.088Z,27.22
2023-04-14T12:31:14.579Z,26.36
2023-04-14T12:33:44.582Z,25.68
2023-04-14T12:36:13.626Z,25.40
2023-04-14T12:38:41.861Z,25.97
2023-04-14T12:41:11.081Z,26.36
2023-04-14T12:43:40.982Z,26.48
2023-04-14T12:46:10.078Z,26.88
2023-04-14T12:48:41.206Z,26.85
2023-04-14T12:51:12.680Z,26.60
2023-04-14T12:53:42.827Z,25.53
2023-04-14T12:56:16.648Z,25.30
2023-04-14T12:58:49.577Z,24.76
2023-04-14T13:01:20.915Z,23.84
2023-04-14T13:03:52.485Z,22.49
2023-04-14T13:06:23.132Z,22.46
2023-04-14T13:08:56.283Z,22.85
2023-04-14T13:11:25.040Z,23.79
2023-04-14T13:13:54.026Z,23.73
2023-04-14T13:16:26.436Z,22.96
2023-04-14T13:18:56.334Z,22.24
2023-04-14T13:21:24.716Z,21.32
2023-04-14T13:23:53.104Z,21.26
2023-04-14T13:26:21.495Z,21.05
2023-04-14T13:28:50.997Z,21.22
2023-04-14T13:31:19.512Z,21.57
2023-04-14T13:33:47.778Z,21.46
2023-04-14T13:36:16.257Z,21.43
2023-04-14T13:38:44.643Z,21.38
2023-04-14T13:41:15.445Z,20.53
2023-04-14T13:43:44.290Z,19.82
2023-04-14T13:46:13.025Z,19.15
2023-04-14T13:48:43.978Z,17.92
2023-04-14T13:51:12.813Z,17.80
2023-04-14T13:53:41.391Z,18.20
2023-04-14T13:56:10.513Z,18.00
2023-04-14T13:58:38.782Z,18.20
2023-04-14T14:01:11.592Z,17.70
2023-04-14T14:03:41.818Z,18.22
2023-04-14T14:06:10.787Z,18.83
2023-04-14T14:08:39.075Z,19.59
2023-04-14T14:11:08.861Z,19.72
2023-04-14T14:13:38.903Z,20.22
2023-04-14T14:16:09.378Z,19.92
2023-04-14T14:18:38.628Z,20.33
2023-04-14T14:21:07.026Z,20.16
2023-04-14T14:23:35.207Z,21.21
2023-04-14T14:26:03.386Z,21.51
2023-04-14T14:28:32.688Z,21.91
2023-04-14T14:31:01.620Z,21.88
2023-04-14T14:33:30.072Z,22.44
2023-04-14T14:35:58.668Z,23.19
2023-04-14T14:38:27.148Z,23.78
2023-04-14T14:40:55.540Z,24.43
2023-04-14T14:43:23.920Z,24.80
2023-04-14T14:45:52.304Z,25.28
2023-04-14T14:48:21.421Z,25.75
2023-04-14T14:50:49.789Z,26.19
2023-04-14T14:53:18.330Z,26.85
2023-04-14T14:55:46.931Z,27.51
2023-04-14T14:58:15.726Z,27.76
2023-04-14T15:00:44.302Z,27.72
2023-04-14T15:03:13.740Z,28.13
2023-04-14T15:05:42.101Z,28.71
2023-04-14T15:08:10.584Z,29.42
2023-04-14T15:10:40.615Z,29.88
2023-04-14T15:13:08.995Z,30.17
2023-04-14T15:15:37.960Z,30.42
2023-04-14T15:18:07.535Z,30.74
2023-04-14T15:20:36.237Z,31.07
2023-04-14T15:23:04.582Z,31.25
2023-04-14T15:25:33.127Z,31.84
2023-04-14T15:28:01.708Z,32.68
2023-04-14T15:30:30.509Z,32.65
2023-04-14T15:32:58.968Z,32.98
2023-04-14T15:35:28.204Z,33.10
2023-04-14T15:37:57.213Z,33.24
2023-04-14T15:40:25.591Z,33.30
2023-04-14T15:42:53.982Z,33.64
2023-04-14T15:45:23.175Z,33.83
2023-04-14T15:47:51.928Z,33.88
2023-04-14T15:50:20.666Z,34.32
2023-04-14T15:52:49.853Z,34.33
2023-04-14T15:55:18.135Z,34.59
2023-04-14T15:57:46.621Z,34.44
2023-04-14T16:00:15.564Z,34.69
2023-04-14T16:02:46.683Z,34.82
2023-04-14T16:05:15.634Z,35.15
2023-04-14T16:07:44.090Z,35.10
2023-04-14T16:10:12.446Z,35.26
2023-04-14T16:12:43.994Z,35.10
2023-04-14T16:15:12.552Z,35.41
2023-04-14T16:17:42.465Z,35.59
2023-04-14T16:20:12.803Z,35.31
2023-04-14T16:22:41.294Z,35.85
2023-04-14T16:25:10.390Z,35.80
2023-04-14T16:27:39.016Z,36.44
2023-04-14T16:30:08.529Z,36.68
2023-04-14T16:32:36.938Z,36.90
2023-04-14T16:35:05.704Z,36.92
2023-04-14T16:37:34.606Z,37.28
2023-04-14T16:40:03.371Z,37.37
2023-04-14T16:42:31.685Z,37.69
2023-04-14T16:44:59.968Z,37.90
2023-04-14T16:47:31.583Z,38.21
2023-04-14T16:50:00.168Z,38.69
2023-04-14T16:52:30.611Z,38.88
2023-04-14T16:54:59.461Z,39.54
2023-04-14T16:57:28.425Z,39.75
2023-04-14T16:59:56.593Z,40.18
2023-04-14T17:02:25.366Z,40.84
2023-04-14T17:04:53.904Z,41.21
2023-04-14T17:07:22.253Z,41.72
2023-04-14T17:09:50.432Z,42.03
2023-04-14T17:12:18.911Z,42.50
2023-04-14T17:14:47.812Z,43.17
2023-04-14T17:17:16.919Z,43.40
2023-04-14T17:19:45.804Z,43.55
2023-04-14T17:22:15.525Z,44.05
2023-04-14T17:24:45.872Z,44.27
2023-04-14T17:27:14.130Z,44.60
2023-04-14T17:29:42.818Z,44.90
2023-04-14T17:32:11.584Z,45.04
2023-04-14T17:34:40.305Z,44.97
2023-04-14T17:37:09.403Z,44.68
2023-04-14T17:39:37.699Z,44.99
2023-04-14T17:42:06.179Z,44.51
2023-04-14T17:44:34.880Z,44.21
2023-04-14T17:47:13.005Z,43.94
2023-04-14T17:49:42.945Z,43.81
2023-04-14T17:52:21.744Z,43.59
2023-04-14T17:54:50.203Z,43.54
2023-04-14T17:57:18.760Z,43.42
2023-04-14T17:59:47.632Z,43.60
2023-04-14T18:02:16.506Z,43.62
2023-04-14T18:04:47.395Z,43.74
2023-04-14T18:07:15.713Z,43.62
2023-04-14T18:09:44.405Z,43.64
2023-04-14T18:12:13.909Z,44.23
2023-04-14T18:14:42.505Z,44.48
2023-04-14T18:17:10.860Z,44.95
2023-04-14T18:19:39.577Z,44.94
2023-04-14T18:22:08.051Z,44.76
2023-04-14T18:29:39.559Z,45.00
2023-04-14T18:32:08.409Z,45.08
2023-04-14T18:34:36.850Z,45.43
2023-04-14T18:37:05.440Z,45.54
2023-04-14T18:39:36.988Z,45.96
2023-04-14T18:42:05.483Z,45.92
2023-04-14T18:44:34.063Z,45.60
2023-04-14T18:47:02.550Z,44.67
2023-04-14T18:49:31.168Z,43.83
2023-04-14T18:51:59.631Z,43.83
2023-04-14T18:54:28.214Z,43.78
2023-04-14T18:56:56.697Z,43.86
2023-04-14T18:59:29.283Z,43.84
2023-04-14T19:01:58.590Z,43.89
2023-04-14T19:04:27.211Z,43.79
2023-04-14T19:06:55.563Z,43.94
2023-04-14T19:09:24.556Z,43.83
2023-04-14T19:11:53.255Z,43.81
2023-04-14T19:14:21.942Z,44.02
2023-04-14T19:16:50.431Z,44.07
2023-04-14T19:19:19.538Z,44.37
2023-04-14T19:21:48.021Z,44.47
2023-04-14T19:24:16.815Z,44.71
2023-04-14T19:26:47.665Z,45.13
2023-04-14T19:29:16.352Z,45.78
2023-04-14T19:31:44.980Z,45.98
2023-04-14T19:34:13.328Z,46.03
2023-04-14T19:36:41.801Z,46.21
2023-04-14T19:39:10.597Z,46.05
2023-04-14T19:41:39.288Z,46.14
2023-04-14T19:44:08.707Z,46.22
2023-04-14T19:46:37.593Z,46.61
2023-04-14T19:49:07.516Z,47.56
2023-04-14T19:51:36.818Z,48.07
2023-04-14T19:54:05.814Z,48.88
2023-04-14T19:56:34.416Z,49.20
2023-04-14T19:59:03.193Z,49.80
2023-04-14T20:01:32.484Z,50.29
2023-04-14T20:04:05.578Z,50.26
2023-04-14T20:06:41.553Z,50.53
2023-04-14T20:09:10.042Z,50.86
2023-04-14T20:11:38.472Z,51.94
2023-04-14T20:14:06.902Z,51.57
2023-04-14T20:16:35.612Z,51.19
2023-04-14T20:19:04.921Z,51.07
2023-04-14T20:21:33.820Z,51.02
2023-04-14T20:24:02.195Z,51.47
2023-04-14T20:26:30.473Z,51.45
2023-04-14T20:28:59.509Z,51.71
2023-04-14T20:31:29.331Z,51.70
2023-04-14T20:33:58.093Z,51.71
2023-04-14T20:36:26.470Z,51.86
2023-04-14T20:38:54.844Z,52.12
2023-04-14T20:41:23.036Z,52.15
2023-04-14T20:43:51.628Z,52.25
2023-04-14T20:46:22.401Z,52.00
2023-04-14T20:48:50.753Z,52.34
2023-04-14T20:51:19.882Z,52.87
2023-04-14T20:53:49.027Z,53.45
2023-04-14T20:56:18.116Z,53.97
2023-04-14T20:58:46.557Z,54.47
2023-04-14T21:01:15.863Z,54.70
2023-04-14T21:03:44.525Z,54.91
2023-04-14T21:06:13.126Z,55.09
2023-04-14T21:08:41.714Z,55.32
2023-04-14T21:11:16.257Z,55.55
2023-04-14T21:15:29.784Z,55.61
2023-04-14T21:16:35.913Z,55.58
2023-04-14T21:19:05.818Z,55.87
2023-04-14T21:21:35.065Z,56.08
2023-04-14T21:24:03.952Z,55.84
2023-04-14T21:26:32.539Z,55.81
2023-04-14T21:29:01.241Z,56.20
2023-04-14T21:31:30.074Z,56.71
2023-04-14T21:33:58.612Z,57.08
2023-04-14T21:36:27.727Z,57.29
2023-04-14T21:38:57.356Z,57.26
2023-04-14T21:41:26.021Z,57.15
2023-04-14T21:43:54.305Z,57.37
2023-04-14T21:46:23.594Z,57.29
2023-04-14T21:48:52.092Z,56.92
2023-04-14T21:51:22.232Z,56.89
2023-04-14T21:53:50.401Z,57.22
2023-04-14T21:56:24.522Z,57.15
2023-04-14T21:59:10.510Z,56.95
2023-04-14T22:01:44.970Z,57.29
2023-04-14T22:04:22.068Z,57.09
2023-04-14T22:06:54.684Z,56.94
2023-04-14T22:09:28.591Z,56.79
2023-04-14T22:12:00.416Z,56.71
2023-04-14T22:14:29.044Z,56.53
2023-04-14T22:16:58.033Z,56.71
2023-04-14T22:19:28.789Z,56.35
2023-04-14T22:21:57.229Z,56.48
2023-04-14T22:24:25.965Z,56.44
2023-04-14T22:26:54.447Z,56.54
2023-04-14T22:29:23.143Z,56.83
2023-04-14T22:31:53.392Z,57.46
2023-04-14T22:34:22.372Z,57.57
2023-04-14T22:36:51.369Z,57.97
2023-04-14T22:39:22.919Z,58.43
2023-04-14T22:41:54.683Z,58.46
2023-04-14T22:44:30.847Z,58.41
2023-04-14T22:47:00.248Z,58.67
2023-04-14T22:49:36.765Z,58.81
2023-04-14T22:52:05.924Z,58.82
2023-04-14T22:54:34.441Z,58.49
2023-04-14T22:57:09.248Z,58.73
2023-04-14T22:59:37.932Z,58.49
2023-04-14T23:02:07.555Z,58.51
2023-04-14T23:04:37.036Z,58.24
2023-04-14T23:07:05.456Z,58.46
2023-04-14T23:09:33.826Z,58.63
2023-04-14T23:12:02.857Z,58.33
2023-04-14T23:14:32.634Z,58.43
2023-04-14T23:17:01.224Z,58.24
2023-04-14T23:19:29.915Z,58.24
2023-04-14T23:21:58.712Z,58.58
2023-04-14T23:24:27.019Z,58.42
2023-04-14T23:26:57.821Z,58.36
2023-04-14T23:29:26.835Z,58.48
2023-04-14T23:31:55.332Z,58.30
2023-04-14T23:34:23.916Z,58.23
2023-04-14T23:36:52.502Z,57.90
2023-04-14T23:39:20.882Z,57.82
2023-04-14T23:41:49.370Z,57.96
2023-04-14T23:44:17.854Z,57.92
2023-04-14T23:46:51.846Z,57.86
2023-04-14T23:49:23.372Z,58.08
2023-04-14T23:51:55.495Z,58.10
2023-04-14T23:54:24.502Z,58.19
2023-04-14T23:56:53.798Z,57.94
2023-04-14T23:59:22.210Z,58.08
